Main page
METAR-TAF:

METAR-TAF

Airports :

Bushehr Airport

Bushehr, Iran

latitude: 28-59N, longitude: 050-50E, elevation: 19 m

Current weather observation

The report was made 18 minutes ago, at 04:00 UTC
Wind 6 kt from the North/Northeast
Temperature 17°C
Humidity 72%
Pressure 1021 hPa
Visibility: 4000 m
haze

METAR: OIBB 090400Z 02006KT 4000 HZ NSC 17/12 Q1020 A3015

Time: 07:48 (04:18 UTC)

Forecast

The report was made 2 hours and 8 minutes ago, at 02:10 UTC
Forecast valid from 09 at 03 UTC to 09 at 12 UTC
Wind 6 kt from the East/Northeast
Visibility: 4000 m
Becoming
from 09 at 05 UTC to 09 at 06 UTC
Wind 8 kt from the North/Northwest
Visibility: 7000 m

TAF: OIBB 090210Z 0903/0912 07006KT 4000 BR/HZ NSC BECMG 0905/0906 33008KT 7000

Weather observations and forecasts of more than 4000 airports (METAR and TAF reports).

The available stations are represented by yellow and red dots on the map.

Hover mouse over dot to see the name of the station.

Then click to see weather observations and forecasts.

To change the map : click on the green buttons with a black cross to zoom in, on the green button with a dash to zoom out, or on the green arrows for adjacent maps.


METAR-TAF: